Time;durP1;ratioP1;P1;durP2;ratioP2;P2;SDS_P1;SDS_P2;PMS_P1;PMS_P2;Temp;Humidity;BMP_temperature;BMP_pressure;BME280_temperature;BME280_humidity;BME280_pressure;Samples;Min_cycle;Max_cycle;Signal;HPM_P1;HPM_P2
2022/01/16 00:00:15;;;;;;;9.10;4.73;;;;;;;1.20;69.83;101385.25;5067489;28;20025;-70
2022/01/16 00:05:28;;;;;;;8.27;3.63;;;;;;;2.42;65.70;101507.03;5050899;28;20122;-71
2022/01/16 00:07:54;;;;;;;7.03;3.40;;;;;;;2.34;67.26;101502.94;5069620;28;20024;-74
2022/01/16 00:10:21;;;;;;;7.65;3.65;;;;;;;2.35;66.57;101504.72;5071690;28;20475;-73
2022/01/16 00:12:48;;;;;;;7.50;3.28;;;;;;;2.25;67.38;101505.56;5071374;28;20486;-73
2022/01/16 00:15:19;;;;;;;8.20;4.73;;;;;;;2.19;67.69;101503.38;5070946;28;20043;-75
2022/01/16 00:18:09;;;;;;;6.83;3.73;;;;;;;2.05;68.46;101488.56;5072062;28;20078;-74
2022/01/16 00:20:35;;;;;;;8.25;2.92;;;;;;;2.13;68.12;101497.78;5071662;28;20028;-74
2022/01/16 00:23:04;;;;;;;7.87;3.90;;;;;;;1.97;69.28;101497.16;5071768;28;20093;-70
2022/01/16 00:25:30;;;;;;;8.38;3.97;;;;;;;1.96;69.55;101509.00;5052950;28;20071;-70
2022/01/16 00:27:56;;;;;;;7.77;4.27;;;;;;;1.90;70.62;101521.19;5071567;28;20032;-72
2022/01/16 00:30:21;;;;;;;11.07;4.40;;;;;;;1.81;71.90;101558.56;5071069;28;20135;-70
2022/01/16 00:32:47;;;;;;;9.00;4.43;;;;;;;1.61;72.02;101575.50;5071551;28;20115;-71
2022/01/16 00:35:13;;;;;;;7.20;3.83;;;;;;;1.55;71.77;101606.38;5071639;28;20488;-71
2022/01/16 00:37:40;;;;;;;9.77;4.20;;;;;;;1.64;71.67;101664.84;5071760;28;20400;-72
2022/01/16 00:40:08;;;;;;;9.40;4.10;;;;;;;1.66;71.79;101683.72;5070798;28;20422;-70
2022/01/16 00:42:34;;;;;;;13.67;4.23;;;;;;;1.61;72.91;101634.03;5071351;28;20410;-71
2022/01/16 00:44:59;;;;;;;7.60;3.90;;;;;;;1.34;73.42;101516.25;5070473;28;20033;-71
2022/01/16 00:47:25;;;;;;;10.40;5.00;;;;;;;1.42;75.37;101446.59;5070552;28;20058;-70
2022/01/16 00:49:50;;;;;;;7.90;4.60;;;;;;;1.54;76.43;101406.06;5071224;28;20024;-71
2022/01/16 00:52:16;;;;;;;8.37;4.67;;;;;;;1.64;75.53;101407.75;5071207;28;20028;-71
2022/01/16 00:54:42;;;;;;;9.77;4.78;;;;;;;1.69;75.33;101403.97;5071024;28;20051;-70
2022/01/16 00:57:07;;;;;;;12.47;5.67;;;;;;;1.70;75.77;101418.47;5071345;28;20024;-71
2022/01/16 00:59:33;;;;;;;8.57;5.10;;;;;;;1.61;75.71;101443.16;5070786;28;20051;-72
2022/01/16 01:02:00;;;;;;;10.00;5.07;;;;;;;1.82;76.28;101445.78;5070924;28;20113;-70
2022/01/16 01:04:26;;;;;;;8.57;4.93;;;;;;;1.80;75.80;101476.19;5071284;28;20109;-72
2022/01/16 01:06:51;;;;;;;9.13;4.97;;;;;;;1.65;76.18;101507.94;5070993;28;20506;-72
2022/01/16 01:09:17;;;;;;;9.18;5.10;;;;;;;1.78;76.66;101541.34;5070923;28;20021;-72
2022/01/16 01:11:45;;;;;;;10.80;5.40;;;;;;;1.56;75.87;101581.81;5070797;28;20036;-72
2022/01/16 01:14:26;;;;;;;12.87;5.37;;;;;;;1.47;75.98;101565.69;5070528;28;20112;-72
2022/01/16 01:17:00;;;;;;;12.55;5.57;;;;;;;1.54;76.25;101562.97;5070830;28;20086;-71
2022/01/16 01:19:32;;;;;;;14.37;5.27;;;;;;;1.26;75.13;101510.47;5071030;28;20020;-72
2022/01/16 01:21:58;;;;;;;14.67;5.83;;;;;;;1.63;75.15;101530.69;5070338;28;20413;-72
2022/01/16 01:24:24;;;;;;;13.60;5.63;;;;;;;1.66;75.98;101547.91;5069536;28;20103;-73
2022/01/16 01:27:01;;;;;;;9.80;4.70;;;;;;;1.47;73.61;101504.63;5069902;28;20136;-72
2022/01/16 01:29:29;;;;;;;12.73;5.23;;;;;;;1.70;72.92;101534.72;5070626;28;20028;-72
2022/01/16 01:31:55;;;;;;;9.97;4.80;;;;;;;1.66;73.05;101536.09;5070420;28;20052;-73
2022/01/16 01:34:21;;;;;;;13.80;6.40;;;;;;;1.63;73.39;101540.88;5070559;28;20039;-73
2022/01/16 01:36:48;;;;;;;10.90;5.40;;;;;;;1.55;73.59;101549.50;5070522;28;20036;-72
2022/01/16 01:39:19;;;;;;;11.30;6.30;;;;;;;1.20;74.66;101514.09;5070201;28;20580;-72
2022/01/16 01:41:47;;;;;;;17.60;7.63;;;;;;;1.36;75.16;101569.81;5052651;28;20457;-72
2022/01/16 01:52:26;;;;;;;9.10;4.87;;;;;;;1.27;76.14;101593.66;5070729;28;20555;-74
2022/01/16 01:54:53;;;;;;;9.73;5.03;;;;;;;1.20;75.52;101570.06;5070653;28;20063;-72
2022/01/16 01:57:18;;;;;;;13.13;5.33;;;;;;;1.38;75.78;101604.81;5070334;28;20165;-72
2022/01/16 01:59:44;;;;;;;9.63;5.00;;;;;;;1.52;76.06;101601.00;5070358;28;20521;-73
2022/01/16 02:02:09;;;;;;;13.60;4.90;;;;;;;1.52;76.53;101610.28;5070003;28;20028;-73
2022/01/16 02:04:35;;;;;;;15.77;5.53;;;;;;;1.55;77.28;101616.53;5070518;28;20086;-73
2022/01/16 02:07:00;;;;;;;11.90;5.20;;;;;;;1.50;78.10;101606.72;5070289;28;20060;-73
2022/01/16 02:09:26;;;;;;;13.77;5.17;;;;;;;1.48;78.67;101604.00;5070116;28;20090;-73
2022/01/16 02:11:53;;;;;;;10.87;5.03;;;;;;;1.51;79.33;101632.31;5070507;28;20115;-74
2022/01/16 02:14:32;;;;;;;10.30;5.23;;;;;;;1.48;78.90;101626.03;5050087;28;20029;-72
2022/01/16 02:34:29;;;;;;;19.57;6.73;;;;;;;0.21;82.97;101508.38;5069931;28;20106;-73
2022/01/16 02:36:24;;;;;;;19.10;6.70;;;;;;;0.91;82.89;101604.75;5069904;28;20035;-72
2022/01/16 02:38:49;;;;;;;17.33;6.57;;;;;;;0.95;84.33;101599.19;5071362;28;20452;-70
2022/01/16 02:41:15;;;;;;;22.33;7.17;;;;;;;0.91;84.40;101586.03;5073661;28;20033;-69
2022/01/16 02:43:46;;;;;;;14.77;6.83;;;;;;;0.89;84.13;101587.56;5055683;28;20117;-70
2022/01/16 02:48:43;;;;;;;11.57;5.43;;;;;;;0.63;82.91;101547.88;5073248;28;20031;-70
2022/01/16 02:51:08;;;;;;;15.63;6.27;;;;;;;0.99;82.47;101596.94;5073231;28;20490;-70
2022/01/16 02:53:34;;;;;;;13.73;5.73;;;;;;;1.07;81.92;101607.09;5073548;28;20021;-69
2022/01/16 02:56:00;;;;;;;10.97;5.83;;;;;;;1.15;81.69;101602.69;5072617;28;20031;-71
2022/01/16 02:58:25;;;;;;;10.37;6.20;;;;;;;1.10;80.71;101592.09;5072323;28;20478;-71
2022/01/16 03:00:51;;;;;;;15.27;6.80;;;;;;;1.04;80.19;101608.44;5073314;28;20036;-71
2022/01/16 03:03:16;;;;;;;11.93;5.53;;;;;;;0.50;81.66;101572.84;5073237;28;20040;-70
2022/01/16 03:05:42;;;;;;;11.40;5.90;;;;;;;0.34;82.99;101578.13;5073646;28;20029;-74
2022/01/16 03:08:07;;;;;;;17.27;6.33;;;;;;;0.40;83.26;101588.88;5072734;28;20147;-70
2022/01/16 03:13:31;;;;;;;12.77;5.87;;;;;;;0.23;85.21;101600.84;4972062;28;20142;-70
2022/01/16 03:15:57;;;;;;;12.07;6.97;;;;;;;-0.07;85.49;101548.00;4972040;28;20065;-70
2022/01/16 03:23:36;;;;;;;23.73;9.50;;;;;;;-0.15;86.96;101594.59;4907980;29;20112;-74
2022/01/16 03:26:02;;;;;;;27.87;9.97;;;;;;;-0.19;87.68;101604.44;4894999;29;20028;-68
2022/01/16 03:28:29;;;;;;;20.03;7.77;;;;;;;-0.16;87.46;101611.47;4895068;29;20458;-72
2022/01/16 03:30:55;;;;;;;20.47;7.87;;;;;;;-0.05;87.38;101628.66;4894650;29;20116;-70
2022/01/16 03:33:21;;;;;;;18.93;7.53;;;;;;;-0.25;87.27;101570.84;4894835;29;20132;-71
2022/01/16 03:35:51;;;;;;;14.33;6.80;;;;;;;-0.41;88.33;101572.59;4894446;29;20060;-71
2022/01/16 03:38:17;;;;;;;14.33;6.70;;;;;;;-0.31;88.05;101623.53;4894854;29;20511;-70
2022/01/16 03:40:43;;;;;;;14.53;7.07;;;;;;;-0.29;87.79;101639.78;4894836;29;20044;-71
2022/01/16 03:43:14;;;;;;;15.23;7.53;;;;;;;-0.20;87.05;101634.72;4895264;29;20135;-71
2022/01/16 03:45:42;;;;;;;13.17;6.57;;;;;;;-0.21;87.35;101621.16;4905211;29;20040;-70
2022/01/16 03:48:07;;;;;;;15.73;8.60;;;;;;;-0.10;86.84;101631.47;4912045;29;20044;-71
2022/01/16 03:50:33;;;;;;;15.40;8.17;;;;;;;-0.09;86.97;101641.75;4972508;28;20037;-69
2022/01/16 03:52:58;;;;;;;16.07;8.77;;;;;;;-0.28;87.53;101595.03;4989819;28;20037;-71
2022/01/16 03:55:24;;;;;;;13.43;7.80;;;;;;;-0.11;87.17;101637.28;4990347;28;20034;-73
2022/01/16 03:57:49;;;;;;;17.97;8.00;;;;;;;-0.32;87.98;101644.59;4989519;28;20034;-70
2022/01/16 04:00:15;;;;;;;16.03;8.80;;;;;;;-0.53;89.05;101653.47;5015992;28;20109;-69
2022/01/16 04:02:40;;;;;;;15.87;7.80;;;;;;;-0.58;90.11;101657.19;5071530;28;20051;-71
2022/01/16 04:05:06;;;;;;;16.37;8.03;;;;;;;-0.53;90.19;101666.16;5071901;28;20498;-69
2022/01/16 04:07:35;;;;;;;32.27;13.23;;;;;;;-1.05;90.15;101611.06;5071017;28;20108;-71
2022/01/16 04:10:07;;;;;;;20.65;9.48;;;;;;;-1.28;91.22;101664.44;5068349;28;20028;-70
2022/01/16 04:12:34;;;;;;;16.10;8.03;;;;;;;-1.46;92.30;101671.94;5071822;28;20037;-70
2022/01/16 04:17:27;;;;;;;19.00;7.93;;;;;;;-1.64;91.82;101691.19;5070540;28;20043;-71
2022/01/16 04:19:53;;;;;;;14.80;7.90;;;;;;;-1.69;93.88;101694.84;5071294;28;20028;-71
2022/01/16 04:22:20;;;;;;;13.20;7.97;;;;;;;-1.71;95.11;101691.25;5070984;28;20158;-71
2022/01/16 04:24:46;;;;;;;16.40;8.97;;;;;;;-1.57;94.54;101688.56;5071475;28;20046;-71
2022/01/16 04:27:12;;;;;;;15.63;7.83;;;;;;;-1.43;94.70;101682.41;5063728;28;20040;-71
2022/01/16 04:29:39;;;;;;;14.50;7.90;;;;;;;-1.66;94.46;101642.91;5051543;28;20047;-71
2022/01/16 04:32:05;;;;;;;17.37;9.17;;;;;;;-1.59;94.92;101699.25;5050434;28;20076;-71
2022/01/16 04:34:31;;;;;;;16.87;7.83;;;;;;;-1.47;94.79;101696.38;5051126;28;20471;-70
2022/01/16 04:36:56;;;;;;;16.87;9.33;;;;;;;-1.44;93.72;101695.78;5050530;28;20036;-71
2022/01/16 04:39:30;;;;;;;25.27;14.33;;;;;;;-1.25;93.58;101710.38;5051548;28;20040;-68
2022/01/16 04:44:40;;;;;;;14.67;6.97;;;;;;;-1.76;93.96;101721.13;5050134;28;20056;-69
2022/01/16 04:47:05;;;;;;;13.80;7.50;;;;;;;-2.20;95.18;101730.84;5050692;28;20479;-71
2022/01/16 04:49:31;;;;;;;15.43;9.07;;;;;;;-2.24;96.32;101723.66;5050842;28;20044;-70
2022/01/16 04:51:56;;;;;;;14.10;7.77;;;;;;;-2.28;95.44;101708.84;5051101;28;20452;-71
2022/01/16 04:54:22;;;;;;;18.90;8.80;;;;;;;-2.24;96.66;101705.94;5050618;28;20033;-70
2022/01/16 04:56:47;;;;;;;16.63;8.70;;;;;;;-2.12;96.24;101708.88;5032676;28;20802;-70
2022/01/16 04:59:13;;;;;;;15.23;8.67;;;;;;;-1.95;95.76;101698.94;5050450;28;20128;-71
2022/01/16 05:01:39;;;;;;;16.70;8.43;;;;;;;-1.92;96.08;101703.41;5050753;28;20041;-71
2022/01/16 05:04:04;;;;;;;16.70;9.10;;;;;;;-1.80;96.44;101712.31;5033407;28;20025;-72
2022/01/16 05:06:29;;;;;;;18.43;8.50;;;;;;;-1.84;95.41;101702.63;5051459;28;20039;-72
2022/01/16 05:08:55;;;;;;;26.67;12.70;;;;;;;-2.03;96.31;101707.34;5050761;28;20033;-75
2022/01/16 05:11:25;;;;;;;20.57;10.40;;;;;;;-2.29;96.63;101649.78;5050958;28;20717;-72
2022/01/16 05:16:35;;;;;;;21.63;11.87;;;;;;;-1.74;96.88;101713.75;5051020;28;20031;-72
2022/01/16 05:19:05;;;;;;;21.50;12.00;;;;;;;-1.83;97.24;101701.88;4989270;28;20038;-72
2022/01/16 05:21:30;;;;;;;15.85;10.30;;;;;;;-1.92;97.67;101713.53;5003104;28;20049;-75
2022/01/16 05:23:56;;;;;;;19.83;11.27;;;;;;;-2.05;97.16;101708.81;5017526;28;20103;-69
2022/01/16 05:26:28;;;;;;;18.77;11.27;;;;;;;-2.26;96.74;101671.09;5008007;28;20030;-71
2022/01/16 05:28:54;;;;;;;21.87;10.93;;;;;;;-1.81;96.16;101697.91;4988324;28;20118;-69
2022/01/16 05:31:20;;;;;;;20.67;10.00;;;;;;;-1.81;95.44;101705.50;4971828;28;20122;-72
2022/01/16 05:33:46;;;;;;;20.10;9.73;;;;;;;-2.07;95.83;101712.78;4968733;28;20058;-70
2022/01/16 05:36:12;;;;;;;17.97;9.57;;;;;;;-2.47;96.45;101724.59;4968996;28;20039;-71
2022/01/16 05:38:37;;;;;;;21.77;11.53;;;;;;;-2.46;97.57;101731.41;4968641;28;20041;-72
2022/01/16 05:41:03;;;;;;;22.33;12.43;;;;;;;-2.22;97.64;101732.28;4968563;28;20093;-71
2022/01/16 05:43:28;;;;;;;21.80;12.50;;;;;;;-2.57;97.85;101688.88;4968657;28;20071;-69
2022/01/16 05:45:54;;;;;;;24.13;16.47;;;;;;;-2.33;97.59;101722.63;4968913;28;20027;-73
2022/01/16 05:48:20;;;;;;;22.20;13.87;;;;;;;-2.38;98.19;101729.75;4968604;28;20038;-70
2022/01/16 05:50:45;;;;;;;17.10;10.30;;;;;;;-2.19;97.82;101727.56;4984827;28;20575;-71
2022/01/16 05:53:10;;;;;;;18.70;10.13;;;;;;;-2.24;97.85;101736.31;4987924;28;20069;-72
2022/01/16 05:55:39;;;;;;;19.00;9.97;;;;;;;-2.10;97.71;101744.50;4987819;28;20085;-69
2022/01/16 05:58:09;;;;;;;18.92;9.48;;;;;;;-2.08;97.65;101720.22;4988150;28;20030;-71
2022/01/16 06:00:36;;;;;;;24.97;13.63;;;;;;;-1.90;97.17;101741.56;4988041;28;20069;-69
2022/01/16 06:03:01;;;;;;;21.20;12.07;;;;;;;-1.81;96.40;101734.94;4988002;28;20038;-71
2022/01/16 06:05:27;;;;;;;16.73;10.03;;;;;;;-1.67;95.76;101752.53;4988093;28;20038;-68
2022/01/16 06:08:06;;;;;;;17.43;10.03;;;;;;;-1.77;95.70;101761.50;4988273;28;20045;-71
2022/01/16 06:10:31;;;;;;;19.00;10.00;;;;;;;-1.97;96.38;101752.66;4997231;28;20515;-70
2022/01/16 06:12:57;;;;;;;20.53;9.90;;;;;;;-2.02;96.91;101764.84;5008271;28;20129;-70
2022/01/16 06:15:23;;;;;;;16.17;10.03;;;;;;;-1.92;96.49;101758.22;5012000;28;20088;-73
2022/01/16 06:17:49;;;;;;;20.80;10.93;;;;;;;-1.76;96.37;101771.78;5012205;28;20447;-73
2022/01/16 06:20:15;;;;;;;59.60;29.43;;;;;;;-1.77;96.64;101774.16;5009598;28;20045;-71
2022/01/16 06:22:42;;;;;;;41.23;21.77;;;;;;;-1.93;96.84;101737.09;5066469;28;20041;-71
2022/01/16 06:25:08;;;;;;;27.20;16.77;;;;;;;-1.64;97.00;101777.28;5074247;28;20490;-69
2022/01/16 06:27:34;;;;;;;23.17;11.37;;;;;;;-1.63;96.55;101774.88;5074291;28;20075;-71
2022/01/16 06:29:59;;;;;;;20.53;11.63;;;;;;;-1.66;96.48;101786.31;5021918;28;20040;-68
2022/01/16 06:32:24;;;;;;;19.70;11.83;;;;;;;-1.82;97.38;101793.91;5074617;28;20060;-70
2022/01/16 06:34:50;;;;;;;21.90;12.80;;;;;;;-2.02;97.84;101807.84;5074150;28;20035;-74
2022/01/16 06:37:15;;;;;;;23.20;14.13;;;;;;;-2.06;98.51;101820.88;5073597;28;20029;-71
2022/01/16 06:39:41;;;;;;;24.10;14.43;;;;;;;-1.88;99.16;101816.00;5056120;28;20033;-71
2022/01/16 06:42:06;;;;;;;24.17;12.77;;;;;;;-1.99;98.28;101772.75;5073909;28;20028;-72
2022/01/16 06:44:32;;;;;;;21.73;12.97;;;;;;;-1.61;97.97;101815.56;5073663;28;20118;-72
2022/01/16 06:46:57;;;;;;;24.43;13.70;;;;;;;-1.49;97.08;101821.06;5073981;28;20070;-72
2022/01/16 06:49:23;;;;;;;27.43;14.70;;;;;;;-1.49;96.86;101819.41;5073829;28;20028;-71
2022/01/16 06:51:48;;;;;;;26.20;14.70;;;;;;;-1.96;98.08;101767.09;5073403;28;20040;-72
2022/01/16 06:54:14;;;;;;;27.30;15.47;;;;;;;-1.68;97.72;101808.06;5073510;28;20749;-72
2022/01/16 06:56:39;;;;;;;24.20;13.43;;;;;;;-1.65;97.97;101821.94;5073144;28;20457;-72
2022/01/16 06:59:05;;;;;;;23.97;12.93;;;;;;;-1.62;98.09;101823.88;5073674;28;20041;-73
2022/01/16 07:01:30;;;;;;;19.67;11.50;;;;;;;-1.74;98.81;101826.03;5073450;28;20029;-71
2022/01/16 07:03:56;;;;;;;23.70;11.30;;;;;;;-1.90;99.74;101810.78;5073255;28;20040;-71
2022/01/16 07:06:23;;;;;;;22.37;11.93;;;;;;;-1.67;100.00;101828.47;5072920;28;20028;-71
2022/01/16 07:08:48;;;;;;;24.00;12.53;;;;;;;-1.70;100.00;101796.88;5073378;28;20400;-71
2022/01/16 07:11:15;;;;;;;22.27;12.70;;;;;;;-1.40;99.87;101827.09;5073461;28;20082;-71
2022/01/16 07:13:40;;;;;;;23.70;14.03;;;;;;;-1.26;99.57;101840.34;5037784;28;20094;-71
2022/01/16 07:16:05;;;;;;;24.67;14.10;;;;;;;-1.92;99.18;101700.88;5073379;28;20036;-70
2022/01/16 07:18:31;;;;;;;23.13;12.20;;;;;;;-1.12;98.99;101830.03;5073288;28;20078;-71
2022/01/16 07:20:57;;;;;;;19.33;12.30;;;;;;;-1.05;99.15;101849.31;5073154;28;20040;-70
2022/01/16 07:23:23;;;;;;;29.60;13.83;;;;;;;-1.26;99.39;101810.81;5073347;28;20035;-71
2022/01/16 07:25:49;;;;;;;23.70;13.43;;;;;;;-0.88;100.00;101863.78;5072792;28;20035;-70
2022/01/16 07:28:15;;;;;;;21.03;12.53;;;;;;;-0.87;99.59;101860.50;5055130;28;20040;-70
2022/01/16 07:30:41;;;;;;;23.83;12.90;;;;;;;-0.72;99.67;101851.97;5073044;28;20044;-71
2022/01/16 07:33:08;;;;;;;21.70;11.77;;;;;;;-0.60;99.16;101851.44;5072823;28;20035;-70
2022/01/16 07:35:34;;;;;;;22.10;12.53;;;;;;;-0.49;99.63;101866.13;5030348;28;20427;-70
2022/01/16 07:38:01;;;;;;;20.53;12.47;;;;;;;-0.31;99.11;101846.84;5030651;28;20042;-73
2022/01/16 07:40:28;;;;;;;22.43;12.27;;;;;;;-0.32;98.67;101809.53;4981036;28;20051;-70
2022/01/16 07:42:54;;;;;;;20.70;12.40;;;;;;;0.21;98.46;101860.50;5030542;28;20037;-70
2022/01/16 07:45:21;;;;;;;21.80;12.00;;;;;;;0.26;97.57;101842.47;5030336;28;20132;-70
2022/01/16 07:47:46;;;;;;;20.00;12.53;;;;;;;0.39;97.76;101862.34;5030403;28;20037;-70
2022/01/16 07:50:14;;;;;;;20.73;11.77;;;;;;;0.50;97.28;101853.28;5030162;28;20041;-72
2022/01/16 07:52:39;;;;;;;23.43;12.50;;;;;;;0.68;97.15;101854.19;4997308;28;20045;-70
2022/01/16 07:55:05;;;;;;;18.83;11.87;;;;;;;0.75;95.94;101843.00;5030585;28;20055;-70
2022/01/16 07:57:31;;;;;;;20.13;11.57;;;;;;;0.95;95.55;101860.19;5030361;28;20519;-70
2022/01/16 07:59:56;;;;;;;21.40;12.03;;;;;;;0.96;94.53;101860.34;5030496;28;20041;-70
2022/01/16 08:02:22;;;;;;;21.23;11.30;;;;;;;1.02;94.08;101862.56;5030574;28;20056;-70
2022/01/16 08:04:47;;;;;;;23.07;13.40;;;;;;;1.11;94.33;101860.94;5030288;28;20034;-70
2022/01/16 08:07:13;;;;;;;23.30;11.83;;;;;;;1.19;94.26;101865.88;5058505;28;20059;-68
2022/01/16 08:09:39;;;;;;;21.50;12.57;;;;;;;1.21;93.89;101859.28;5072279;28;20773;-70
2022/01/16 08:12:06;;;;;;;18.93;11.57;;;;;;;1.39;92.98;101863.59;5072494;28;20035;-72
2022/01/16 08:14:32;;;;;;;19.10;12.17;;;;;;;1.36;92.76;101862.41;5072260;28;20029;-71
2022/01/16 08:16:58;;;;;;;26.57;14.60;;;;;;;1.56;92.22;101871.97;5072002;28;20115;-70
2022/01/16 08:19:25;;;;;;;22.87;12.30;;;;;;;1.71;92.00;101859.81;5071978;28;20112;-70
2022/01/16 08:21:50;;;;;;;20.20;12.27;;;;;;;1.48;91.82;101777.06;5072171;28;20082;-70
2022/01/16 08:24:16;;;;;;;22.80;13.00;;;;;;;1.92;90.79;101843.13;5072165;28;20438;-68
2022/01/16 08:26:41;;;;;;;20.57;11.87;;;;;;;1.95;89.81;101838.31;5072052;28;20384;-69
2022/01/16 08:29:09;;;;;;;24.83;13.00;;;;;;;1.99;90.41;101848.00;5072198;28;20371;-70
2022/01/16 08:31:34;;;;;;;20.60;10.97;;;;;;;2.06;89.81;101847.84;5071499;28;20139;-70
2022/01/16 08:34:00;;;;;;;17.60;10.00;;;;;;;2.18;88.98;101847.19;5071668;28;20640;-69
2022/01/16 08:36:26;;;;;;;20.90;12.10;;;;;;;2.29;89.02;101851.63;5071053;28;20039;-69
2022/01/16 08:38:53;;;;;;;23.98;13.45;;;;;;;2.26;89.17;101829.31;5019763;28;20050;-70
2022/01/16 08:41:19;;;;;;;17.88;11.25;;;;;;;2.27;89.02;101830.22;5071782;28;20119;-68
2022/01/16 08:43:44;;;;;;;21.30;11.75;;;;;;;2.08;88.37;101791.94;5071570;28;20443;-71
2022/01/16 08:46:11;;;;;;;22.65;13.00;;;;;;;2.47;87.84;101832.03;5071393;28;20032;-71
2022/01/16 08:48:37;;;;;;;24.23;14.43;;;;;;;2.59;87.42;101824.59;5049020;28;20448;-70
2022/01/16 08:51:03;;;;;;;18.80;11.48;;;;;;;2.54;86.65;101797.81;5071481;28;20086;-70
2022/01/16 08:53:28;;;;;;;19.08;12.35;;;;;;;2.60;85.59;101783.06;5071450;28;20024;-71
2022/01/16 08:55:54;;;;;;;21.77;12.50;;;;;;;2.96;84.06;101819.38;5071314;28;20024;-70
2022/01/16 08:58:19;;;;;;;21.25;11.65;;;;;;;3.00;83.36;101821.44;5071406;28;20028;-70
2022/01/16 09:00:47;;;;;;;17.90;11.02;;;;;;;3.06;80.41;101817.78;5071263;28;20032;-70
2022/01/16 09:03:13;;;;;;;15.55;9.82;;;;;;;3.03;80.41;101816.63;5071094;28;20036;-72
2022/01/16 09:05:39;;;;;;;19.50;11.38;;;;;;;2.92;79.60;101806.34;5071466;28;20082;-70
2022/01/16 09:08:04;;;;;;;20.27;11.85;;;;;;;3.06;81.47;101819.44;5071356;28;20024;-68
2022/01/16 09:10:30;;;;;;;20.05;12.10;;;;;;;3.25;81.21;101819.41;5071334;28;20544;-73
2022/01/16 09:12:55;;;;;;;17.65;11.60;;;;;;;3.40;79.12;101814.75;5071159;28;20107;-70
2022/01/16 09:15:22;;;;;;;18.45;11.07;;;;;;;3.48;78.52;101812.88;5071060;28;20032;-70
2022/01/16 09:17:47;;;;;;;20.02;9.82;;;;;;;3.55;77.77;101805.88;5071153;28;20028;-74
2022/01/16 09:20:13;;;;;;;15.20;9.18;;;;;;;3.40;75.71;101764.59;5071006;28;20109;-70
2022/01/16 09:22:43;;;;;;;15.93;9.63;;;;;;;3.87;74.68;101809.41;5071106;28;20106;-70
2022/01/16 09:25:10;;;;;;;14.73;8.20;;;;;;;4.00;71.50;101793.47;5071114;28;20036;-70
2022/01/16 09:27:36;;;;;;;15.63;8.73;;;;;;;3.88;70.98;101748.22;5070842;28;20032;-74
2022/01/16 09:30:03;;;;;;;14.68;8.90;;;;;;;4.12;71.19;101793.63;5070663;28;20399;-70
2022/01/16 09:32:31;;;;;;;15.13;8.38;;;;;;;4.11;71.05;101795.28;5070626;28;20167;-68
2022/01/16 09:34:56;;;;;;;14.50;9.05;;;;;;;4.26;70.78;101790.56;5070887;28;20037;-70
2022/01/16 09:37:22;;;;;;;17.83;8.40;;;;;;;4.22;68.65;101780.84;5070850;28;20107;-69
2022/01/16 09:39:47;;;;;;;13.20;8.02;;;;;;;4.26;67.61;101780.34;5070910;28;20024;-68
2022/01/16 09:42:13;;;;;;;16.35;8.02;;;;;;;4.40;68.29;101780.56;5070758;28;20036;-70
2022/01/16 09:44:39;;;;;;;11.80;6.03;;;;;;;4.55;62.69;101786.97;5070666;28;20024;-69
2022/01/16 09:47:05;;;;;;;11.80;6.85;;;;;;;4.49;63.37;101758.34;5070350;28;20036;-71
2022/01/16 09:49:31;;;;;;;11.75;6.38;;;;;;;4.35;65.26;101734.19;5070599;28;20033;-71
2022/01/16 09:51:56;;;;;;;11.05;6.40;;;;;;;4.54;61.42;101749.38;5070571;28;20021;-71
2022/01/16 09:54:22;;;;;;;12.70;5.45;;;;;;;4.64;60.98;101771.50;5070498;28;20086;-72
2022/01/16 09:56:48;;;;;;;7.97;4.30;;;;;;;4.62;61.47;101761.16;5070543;28;20028;-71
2022/01/16 09:59:13;;;;;;;10.73;5.63;;;;;;;4.56;63.22;101755.53;5070553;28;20452;-71
2022/01/16 10:01:39;;;;;;;10.52;6.07;;;;;;;4.66;62.59;101741.78;5070845;28;20029;-71
2022/01/16 10:04:27;;;;;;;13.32;6.25;;;;;;;4.77;63.09;101750.34;5070638;28;20052;-70
2022/01/16 10:06:58;;;;;;;11.02;6.00;;;;;;;4.93;62.62;101753.38;5070608;28;20060;-69
2022/01/16 10:09:23;;;;;;;10.88;5.93;;;;;;;4.92;62.37;101754.16;5070463;28;20135;-69
2022/01/16 10:12:02;;;;;;;14.32;7.22;;;;;;;5.01;61.82;101756.56;5070731;28;20589;-69
2022/01/16 10:14:37;;;;;;;12.07;5.85;;;;;;;4.91;63.02;101748.91;5070364;28;20025;-69
2022/01/16 10:17:11;;;;;;;11.20;5.53;;;;;;;4.85;62.44;101733.97;5034863;28;20032;-69
2022/01/16 10:19:37;;;;;;;9.45;5.65;;;;;;;4.86;61.76;101743.44;5052229;28;20808;-69
2022/01/16 10:22:06;;;;;;;10.60;5.90;;;;;;;4.89;61.45;101732.53;5070293;28;20025;-70
2022/01/16 10:24:38;;;;;;;10.07;5.55;;;;;;;5.02;61.11;101728.53;5070463;28;20028;-70
2022/01/16 10:27:07;;;;;;;9.00;5.78;;;;;;;5.14;63.23;101733.72;5070560;28;20029;-71
2022/01/16 10:29:48;;;;;;;11.75;6.25;;;;;;;4.98;61.46;101716.22;5070430;28;20553;-70
2022/01/16 10:32:22;;;;;;;11.60;6.32;;;;;;;4.85;61.64;101713.50;5070637;28;20053;-70
2022/01/16 10:35:15;;;;;;;10.45;5.75;;;;;;;5.09;59.66;101718.78;5070064;28;20067;-70
2022/01/16 10:37:46;;;;;;;10.23;5.57;;;;;;;5.24;59.47;101713.97;5070007;28;20429;-70
2022/01/16 10:40:16;;;;;;;11.10;5.88;;;;;;;5.16;59.56;101698.91;5070227;28;20081;-70
2022/01/16 10:42:48;;;;;;;9.05;5.07;;;;;;;5.30;59.03;101704.22;5070451;28;20040;-70
2022/01/16 10:45:15;;;;;;;10.73;5.72;;;;;;;5.40;61.51;101696.47;5070411;28;20044;-70
2022/01/16 10:47:43;;;;;;;9.52;5.43;;;;;;;5.25;58.67;101665.44;5070307;28;20494;-70
2022/01/16 10:50:16;;;;;;;9.90;5.15;;;;;;;5.64;57.90;101687.19;5070118;28;20028;-70
2022/01/16 10:52:51;;;;;;;10.82;6.35;;;;;;;5.76;58.58;101681.25;5069825;28;20150;-70
2022/01/16 10:55:19;;;;;;;8.60;5.40;;;;;;;5.66;58.12;101677.97;5069854;28;20402;-70
2022/01/16 10:57:45;;;;;;;9.95;5.22;;;;;;;5.62;57.95;101677.59;5070006;28;20028;-71
2022/01/16 11:00:20;;;;;;;10.13;5.05;;;;;;;5.67;58.12;101669.50;5072059;28;20513;-71
2022/01/16 11:02:49;;;;;;;10.63;5.18;;;;;;;5.62;57.94;101672.47;5073607;28;20029;-71
2022/01/16 11:05:22;;;;;;;12.05;5.53;;;;;;;5.71;58.40;101667.16;5073686;28;20615;-69
2022/01/16 11:08:03;;;;;;;7.22;4.72;;;;;;;5.71;58.82;101664.59;5073446;28;20122;-71
2022/01/16 11:10:31;;;;;;;9.57;4.50;;;;;;;5.63;57.69;101669.16;5065753;28;20086;-72
2022/01/16 11:13:00;;;;;;;9.18;5.60;;;;;;;5.56;58.30;101664.34;5063360;28;20032;-70
2022/01/16 11:15:27;;;;;;;12.02;5.57;;;;;;;5.64;59.65;101661.56;5057217;28;20044;-71
2022/01/16 11:17:53;;;;;;;10.93;5.70;;;;;;;5.83;58.74;101661.31;5061189;28;20032;-71
2022/01/16 11:20:26;;;;;;;10.88;5.30;;;;;;;5.80;58.17;101665.31;5055775;28;20094;-74
2022/01/16 11:23:29;;;;;;;13.02;5.30;;;;;;;5.80;58.48;101650.81;5014641;28;20100;-71
2022/01/16 11:25:59;;;;;;;10.85;5.50;;;;;;;5.75;58.47;101648.72;5018519;28;20044;-72
2022/01/16 11:28:25;;;;;;;10.63;6.05;;;;;;;5.83;58.95;101642.47;5030607;28;20033;-71
2022/01/16 11:30:53;;;;;;;11.45;5.47;;;;;;;5.87;58.32;101649.63;5030120;28;20093;-70
2022/01/16 11:33:20;;;;;;;13.13;5.80;;;;;;;5.89;58.42;101650.63;5029052;28;20045;-72
2022/01/16 11:35:53;;;;;;;14.02;6.75;;;;;;;5.53;58.79;101594.94;5029497;28;20033;-71
2022/01/16 11:38:20;;;;;;;11.90;6.18;;;;;;;5.89;58.46;101639.50;5030139;28;20045;-70
2022/01/16 11:40:50;;;;;;;12.10;5.93;;;;;;;5.85;58.57;101640.91;5030108;28;20095;-71
2022/01/16 11:43:18;;;;;;;12.02;7.43;;;;;;;6.05;60.47;101646.69;5030017;28;20069;-71
2022/01/16 11:45:49;;;;;;;15.27;7.93;;;;;;;6.12;58.42;101625.84;5027987;28;20667;-72
2022/01/16 11:48:32;;;;;;;13.80;7.32;;;;;;;6.22;59.47;101641.13;5029653;28;20034;-72
2022/01/16 11:50:58;;;;;;;11.38;5.97;;;;;;;6.24;58.63;101626.75;5029919;28;20120;-72
2022/01/16 11:53:55;;;;;;;12.18;6.13;;;;;;;6.00;58.25;101625.81;5040691;28;20119;-72
2022/01/16 11:56:41;;;;;;;11.48;5.93;;;;;;;6.04;59.14;101620.13;5072235;28;20020;-73
2022/01/16 11:59:20;;;;;;;11.02;6.30;;;;;;;5.99;59.33;101614.69;5070122;28;20033;-73
2022/01/16 12:02:00;;;;;;;11.25;6.03;;;;;;;5.87;60.08;101629.13;5067273;28;20031;-73
2022/01/16 12:04:29;;;;;;;10.15;5.85;;;;;;;5.38;60.37;101546.03;5036099;28;20033;-73
2022/01/16 12:07:02;;;;;;;9.73;5.63;;;;;;;5.79;59.68;101619.97;5071989;28;20077;-72